Main page
METAR-TAF:

METAR-TAF

Airports :

Waterford Airport

Waterford, Ireland

latitude: 52-11-14N, longitude: 7-05-13W, elevation: 36 m

Current weather observation

The report was made 12 hours and 34 minutes ago, at 16:30 UTC
Wind 14 kt from the West/Southwest
Temperature 14°C
Humidity 100%
Pressure 1008 hPa
Visibility: 0650 m
Broken clouds at a height of 100 ft
fog

METAR: EIWF 181630Z 24014KT 0650 FG BKN001 14/14 Q1008

Time: 06:04 (05:04 UTC)

Forecast

The report was made 3 hours and 4 minutes ago, at 02:00 UTC
Forecast valid from 19 at 03 UTC to 19 at 12 UTC
Wind 12 kt from the South
Visibility: 2000 m
Scattered clouds at a height of 500 ft
mist
Temporary
from 19 at 03 UTC to 19 at 12 UTC
Visibility: 0500 m
Broken clouds at a height of 100 ft
fog
Probability 40% :
Temporary
from 19 at 04 UTC to 19 at 12 UTC
Wind 20 kt from the South/Southwest with gusts up to 30 kt

TAF: EIWF 190200Z 1903/1912 19012KT 2000 BR SCT005 TEMPO 1903/1912 0500 FG BKN001 PROB40 TEMPO 1904/1912 21020G30KT

Weather observations and forecasts of more than 4000 airports (METAR and TAF reports).

The available stations are represented by yellow and red dots on the map.

Hover mouse over dot to see the name of the station.

Then click to see weather observations and forecasts.

To change the map : click on the green buttons with a black cross to zoom in, on the green button with a dash to zoom out, or on the green arrows for adjacent maps.


METAR-TAF: